createdAt,value
2017-09-25T00:01:40.282Z,56.67
2017-09-25T00:04:07.382Z,61.30
2017-09-25T00:06:33.753Z,48.10
2017-09-25T00:09:01.585Z,47.03
2017-09-25T00:11:27.968Z,47.10
2017-09-25T00:13:54.351Z,48.10
2017-09-25T00:16:20.667Z,51.17
2017-09-25T00:18:47.000Z,53.37
2017-09-25T00:21:13.328Z,53.33
2017-09-25T00:23:39.680Z,44.40
2017-09-25T00:26:06.033Z,40.97
2017-09-25T00:28:32.349Z,55.43
2017-09-25T00:30:58.678Z,63.60
2017-09-25T00:33:25.028Z,45.07
2017-09-25T00:35:51.385Z,61.37
2017-09-25T00:38:17.775Z,53.50
2017-09-25T00:40:44.931Z,62.67
2017-09-25T00:43:11.287Z,67.00
2017-09-25T00:45:38.431Z,51.07
2017-09-25T00:48:04.755Z,63.30
2017-09-25T00:50:31.107Z,57.00
2017-09-25T00:53:11.330Z,46.67
2017-09-25T00:55:49.932Z,45.70
2017-09-25T00:58:16.304Z,53.07
2017-09-25T01:00:54.920Z,50.00
2017-09-25T01:06:24.998Z,58.30
2017-09-25T01:08:51.454Z,58.17
2017-09-25T01:11:17.884Z,56.00
2017-09-25T01:13:44.319Z,44.00
2017-09-25T01:16:10.752Z,57.47
2017-09-25T01:18:37.141Z,39.03
2017-09-25T01:21:04.375Z,45.97
2017-09-25T01:23:30.814Z,43.10
2017-09-25T01:25:57.248Z,36.70
2017-09-25T01:28:23.666Z,43.70
2017-09-25T01:30:50.058Z,38.20
2017-09-25T01:33:16.641Z,38.20
2017-09-25T01:35:43.172Z,40.10
2017-09-25T01:38:09.582Z,33.97
2017-09-25T01:40:36.018Z,39.60
2017-09-25T01:43:02.447Z,37.87
2017-09-25T01:45:29.609Z,40.13
2017-09-25T01:47:56.763Z,39.67
2017-09-25T01:50:23.203Z,39.20
2017-09-25T01:52:50.360Z,40.67
2017-09-25T01:55:16.782Z,41.47
2017-09-25T01:57:43.385Z,49.90
2017-09-25T02:00:09.842Z,54.60
2017-09-25T02:02:36.244Z,52.23
2017-09-25T02:05:02.634Z,60.43
2017-09-25T02:07:29.081Z,63.10
2017-09-25T02:09:55.472Z,67.40
2017-09-25T02:12:21.968Z,62.53
2017-09-25T02:14:48.380Z,71.87
2017-09-25T02:17:14.758Z,66.17
2017-09-25T02:19:41.195Z,66.27
2017-09-25T02:22:07.677Z,68.43
2017-09-25T02:24:34.129Z,70.57
2017-09-25T02:27:01.302Z,59.53
2017-09-25T02:29:27.783Z,51.07
2017-09-25T02:31:54.216Z,58.47
2017-09-25T02:34:20.651Z,53.00
2017-09-25T02:36:47.798Z,57.60
2017-09-25T02:39:14.231Z,53.37
2017-09-25T02:41:40.634Z,56.10
2017-09-25T02:44:07.379Z,56.97
2017-09-25T02:46:33.800Z,59.60
2017-09-25T02:49:00.951Z,58.17
2017-09-25T02:51:29.078Z,57.53
2017-09-25T02:53:55.486Z,55.00
2017-09-25T02:56:21.946Z,55.03
2017-09-25T02:58:49.058Z,51.87
2017-09-25T03:01:15.466Z,48.53
2017-09-25T03:03:41.888Z,57.97
2017-09-25T03:06:08.333Z,57.97
2017-09-25T03:08:34.815Z,58.97
2017-09-25T03:11:01.260Z,53.13
2017-09-25T03:13:29.185Z,53.83
2017-09-25T03:15:55.709Z,54.80
2017-09-25T03:18:22.962Z,44.57
2017-09-25T03:20:49.382Z,46.97
2017-09-25T03:23:15.807Z,49.33
2017-09-25T03:25:42.224Z,54.00
2017-09-25T03:28:09.413Z,50.83
2017-09-25T03:30:36.602Z,54.07
2017-09-25T03:33:03.026Z,60.40
2017-09-25T03:35:30.170Z,57.50
2017-09-25T03:37:56.587Z,55.20
2017-09-25T03:40:23.013Z,54.10
2017-09-25T03:42:49.427Z,56.53
2017-09-25T03:45:15.878Z,52.90
2017-09-25T03:47:43.021Z,58.80
2017-09-25T03:50:10.256Z,52.90
2017-09-25T03:52:36.848Z,53.43
2017-09-25T03:55:03.278Z,50.17
2017-09-25T03:57:30.514Z,50.77
2017-09-25T03:59:57.042Z,55.20
2017-09-25T04:02:23.454Z,53.90
2017-09-25T04:04:49.905Z,53.00
2017-09-25T04:07:16.346Z,52.73
2017-09-25T04:09:42.805Z,56.20
2017-09-25T04:12:09.234Z,43.90
2017-09-25T04:14:35.642Z,50.70
2017-09-25T04:17:02.100Z,49.80
2017-09-25T04:19:28.622Z,52.57
2017-09-25T04:21:55.006Z,52.87
2017-09-25T04:24:22.190Z,54.10
2017-09-25T04:26:48.551Z,53.33
2017-09-25T04:29:14.973Z,43.90
2017-09-25T04:31:41.410Z,62.87
2017-09-25T04:34:08.171Z,59.47
2017-09-25T04:36:34.578Z,61.43
2017-09-25T04:39:00.986Z,58.40
2017-09-25T04:41:28.348Z,67.10
2017-09-25T04:43:54.764Z,63.10
2017-09-25T04:46:21.190Z,51.27
2017-09-25T04:48:47.583Z,66.67
2017-09-25T04:51:14.762Z,55.50
2017-09-25T04:53:41.165Z,67.60
2017-09-25T04:56:07.621Z,60.47
2017-09-25T04:58:34.058Z,57.30
2017-09-25T05:01:00.629Z,63.97
2017-09-25T05:03:27.049Z,63.57
2017-09-25T05:05:53.519Z,54.30
2017-09-25T05:08:19.938Z,57.13
2017-09-25T05:10:46.386Z,59.83
2017-09-25T05:13:14.361Z,60.30
2017-09-25T05:15:41.021Z,57.53
2017-09-25T05:18:07.457Z,56.53
2017-09-25T05:20:33.855Z,45.70
2017-09-25T05:23:01.020Z,71.37
2017-09-25T05:25:27.492Z,72.80
2017-09-25T05:27:53.997Z,72.43
2017-09-25T05:30:21.149Z,63.90
2017-09-25T05:32:47.615Z,56.10
2017-09-25T05:35:14.034Z,61.67
2017-09-25T05:37:40.555Z,58.30
2017-09-25T05:40:07.225Z,59.37
2017-09-25T05:42:33.631Z,58.80
2017-09-25T05:45:00.060Z,55.70
2017-09-25T05:47:26.470Z,51.00
2017-09-25T05:49:53.665Z,60.83
2017-09-25T05:52:20.064Z,71.80
2017-09-25T05:54:46.602Z,66.83
2017-09-25T05:57:13.114Z,66.00
2017-09-25T05:59:39.583Z,70.73
2017-09-25T06:02:06.033Z,66.77
2017-09-25T06:04:32.496Z,71.13
2017-09-25T06:06:59.669Z,73.47
2017-09-25T06:09:26.834Z,69.60
2017-09-25T06:11:53.372Z,67.73
2017-09-25T06:14:21.408Z,68.60
2017-09-25T06:16:47.886Z,66.50
2017-09-25T06:19:14.341Z,60.90
2017-09-25T06:21:41.553Z,57.73
2017-09-25T06:24:08.022Z,57.13
2017-09-25T06:26:34.432Z,55.17
2017-09-25T06:29:01.873Z,57.23
2017-09-25T06:31:28.395Z,52.60
2017-09-25T06:33:55.617Z,50.40
2017-09-25T06:36:22.133Z,52.17
2017-09-25T06:38:49.377Z,48.87
2017-09-25T06:41:15.880Z,45.43
2017-09-25T06:43:42.967Z,38.97
2017-09-25T06:46:14.086Z,33.90
2017-09-25T06:48:40.900Z,35.97
2017-09-25T06:51:09.990Z,34.73
2017-09-25T06:53:39.351Z,32.50
2017-09-25T06:56:05.903Z,28.83
2017-09-25T06:58:32.467Z,28.27
2017-09-25T07:01:03.361Z,30.50
2017-09-25T07:03:30.649Z,29.63
2017-09-25T07:05:58.789Z,29.80
2017-09-25T07:08:26.690Z,29.37
2017-09-25T07:10:53.431Z,28.17
2017-09-25T07:13:21.618Z,29.33
2017-09-25T07:15:49.284Z,27.17
2017-09-25T07:18:16.886Z,29.50
2017-09-25T07:20:43.337Z,29.00
2017-09-25T07:23:10.459Z,29.07
2017-09-25T07:25:39.736Z,27.97
2017-09-25T07:28:06.312Z,27.80
2017-09-25T07:30:32.869Z,27.87
2017-09-25T07:33:00.294Z,26.27
2017-09-25T07:35:29.538Z,26.43
2017-09-25T07:37:57.395Z,26.70
2017-09-25T07:40:25.499Z,25.33
2017-09-25T07:42:51.934Z,26.50
2017-09-25T07:45:20.762Z,24.47
2017-09-25T07:47:48.408Z,22.93
2017-09-25T07:50:14.916Z,24.30
2017-09-25T07:52:41.426Z,21.70
2017-09-25T07:55:08.054Z,23.77
2017-09-25T07:57:34.615Z,22.53
2017-09-25T08:00:01.936Z,19.70
2017-09-25T08:02:28.439Z,21.70
2017-09-25T08:04:58.550Z,19.63
2017-09-25T08:07:27.945Z,18.20
2017-09-25T08:09:56.246Z,17.90
2017-09-25T08:12:24.763Z,15.90
2017-09-25T08:14:53.883Z,16.03
2017-09-25T08:17:21.213Z,15.77
2017-09-25T08:19:49.252Z,14.90
2017-09-25T08:22:16.082Z,15.70
2017-09-25T08:24:43.396Z,14.87
2017-09-25T08:27:12.421Z,15.00
2017-09-25T08:29:39.630Z,14.90
2017-09-25T08:32:06.287Z,12.50
2017-09-25T08:34:32.802Z,11.43
2017-09-25T08:36:59.313Z,12.53
2017-09-25T08:39:25.809Z,12.37
2017-09-25T08:41:52.387Z,11.50
2017-09-25T08:44:19.640Z,11.90
2017-09-25T08:46:48.593Z,11.47
2017-09-25T08:49:16.749Z,9.50
2017-09-25T08:51:43.328Z,10.50
2017-09-25T08:54:10.759Z,10.37
2017-09-25T08:56:38.102Z,10.70
2017-09-25T08:59:06.812Z,9.77
2017-09-25T09:01:33.411Z,8.40
2017-09-25T09:04:00.578Z,9.23
2017-09-25T09:06:30.714Z,11.03
2017-09-25T09:08:58.798Z,11.00
2017-09-25T09:11:26.109Z,10.30
2017-09-25T09:13:54.385Z,10.83
2017-09-25T09:16:21.906Z,13.27
2017-09-25T09:18:48.546Z,12.70
2017-09-25T09:21:15.784Z,13.27
2017-09-25T09:23:43.054Z,14.30
2017-09-25T09:26:10.941Z,14.80
2017-09-25T09:28:37.531Z,13.70
2017-09-25T09:31:06.013Z,11.37
2017-09-25T09:33:34.195Z,12.20
2017-09-25T09:36:00.813Z,10.37
2017-09-25T09:38:29.763Z,10.80
2017-09-25T09:40:58.366Z,11.10
2017-09-25T09:43:26.615Z,10.10
2017-09-25T09:45:55.175Z,10.00
2017-09-25T09:48:22.539Z,9.90
2017-09-25T09:50:50.014Z,8.53
2017-09-25T09:53:16.613Z,9.33
2017-09-25T10:53:30.428Z,6.17
2017-09-25T10:55:56.884Z,7.20
2017-09-25T10:58:39.234Z,7.00
2017-09-25T11:01:05.866Z,5.90
2017-09-25T11:03:33.079Z,6.60
2017-09-25T11:06:00.478Z,6.00
2017-09-25T11:08:27.894Z,5.80
2017-09-25T11:10:56.068Z,5.50
2017-09-25T11:13:23.563Z,7.43
2017-09-25T11:15:50.971Z,7.30
2017-09-25T11:18:19.170Z,7.60
2017-09-25T11:20:49.124Z,6.90
2017-09-25T11:23:18.092Z,8.77
2017-09-25T11:25:49.150Z,8.50
2017-09-25T11:28:16.462Z,8.47
2017-09-25T11:30:44.915Z,7.73
2017-09-25T11:33:12.011Z,8.30
2017-09-25T11:35:40.958Z,7.13
2017-09-25T11:38:09.070Z,5.43
2017-09-25T11:40:36.249Z,6.00
2017-09-25T11:43:03.353Z,6.20
2017-09-25T11:45:30.931Z,5.70
2017-09-25T11:47:58.210Z,5.03
2017-09-25T11:50:27.635Z,6.20
2017-09-25T11:52:54.203Z,6.50
2017-09-25T11:55:21.385Z,4.77
2017-09-25T11:57:50.146Z,4.57
2017-09-25T12:00:17.668Z,5.00
2017-09-25T12:02:44.354Z,4.50
2017-09-25T12:05:11.671Z,3.80
2017-09-25T12:07:39.968Z,3.27
2017-09-25T12:10:08.303Z,3.47
2017-09-25T12:12:34.853Z,4.83
2017-09-25T12:15:03.079Z,4.17
2017-09-25T12:17:29.677Z,4.17
2017-09-25T12:19:58.015Z,4.10
2017-09-25T12:22:24.615Z,4.50
2017-09-25T12:24:52.098Z,5.47
2017-09-25T12:27:19.603Z,5.60
2017-09-25T12:29:47.617Z,5.27
2017-09-25T12:32:15.143Z,5.67
2017-09-25T12:34:42.587Z,5.23
2017-09-25T12:37:09.792Z,4.70
2017-09-25T12:39:36.302Z,5.90
2017-09-25T12:42:02.831Z,4.90
2017-09-25T12:44:29.364Z,4.57
2017-09-25T12:46:56.114Z,4.50
2017-09-25T12:49:23.612Z,4.73
2017-09-25T12:51:50.898Z,4.50
2017-09-25T12:54:18.466Z,4.13
2017-09-25T12:56:45.868Z,4.10
2017-09-25T12:59:13.309Z,3.83
2017-09-25T13:01:40.677Z,3.53
2017-09-25T13:04:07.174Z,5.00
2017-09-25T13:06:34.562Z,4.90
2017-09-25T13:09:02.776Z,4.40
2017-09-25T13:11:30.878Z,4.43
2017-09-25T13:13:59.237Z,4.63
2017-09-25T13:16:26.651Z,5.67
2017-09-25T13:18:55.173Z,5.57
2017-09-25T13:21:21.709Z,4.83
2017-09-25T13:23:51.629Z,5.37
2017-09-25T13:26:18.997Z,5.70
2017-09-25T13:28:45.497Z,6.70
2017-09-25T13:31:12.061Z,7.60
2017-09-25T13:33:39.303Z,6.00
2017-09-25T13:36:07.372Z,6.60
2017-09-25T13:38:33.855Z,6.60
2017-09-25T13:41:00.391Z,6.70
2017-09-25T13:43:27.550Z,7.53
2017-09-25T13:45:54.818Z,6.80
2017-09-25T13:48:21.375Z,5.77
2017-09-25T13:50:48.853Z,5.80
2017-09-25T13:53:15.397Z,5.93
2017-09-25T13:55:43.708Z,5.20
2017-09-25T13:58:11.201Z,4.07
2017-09-25T14:03:29.522Z,5.30
2017-09-25T14:05:58.862Z,4.67
2017-09-25T14:08:26.170Z,3.80
2017-09-25T14:10:53.711Z,3.37
2017-09-25T14:13:20.387Z,3.63
2017-09-25T14:15:48.058Z,3.00
2017-09-25T14:18:14.692Z,3.57
2017-09-25T14:20:41.249Z,2.97
2017-09-25T14:23:08.568Z,3.50
2017-09-25T14:25:35.194Z,2.83
2017-09-25T14:28:01.814Z,4.03
2017-09-25T14:30:29.209Z,3.60
2017-09-25T14:32:56.070Z,3.00
2017-09-25T14:35:23.599Z,2.80
2017-09-25T14:37:50.329Z,3.43
2017-09-25T14:40:17.755Z,5.07
2017-09-25T14:42:44.389Z,4.37
2017-09-25T14:45:11.158Z,4.30
2017-09-25T14:47:38.538Z,4.60
2017-09-25T14:50:05.201Z,4.87
2017-09-25T14:52:31.806Z,5.40
2017-09-25T14:54:59.342Z,5.60
2017-09-25T14:57:26.212Z,5.20
2017-09-25T14:59:52.853Z,4.90
2017-09-25T15:02:20.249Z,4.60
2017-09-25T15:04:46.877Z,3.90
2017-09-25T15:07:14.027Z,5.07
2017-09-25T15:09:40.671Z,3.70
2017-09-25T15:12:07.307Z,4.27
2017-09-25T15:14:33.860Z,5.47
2017-09-25T15:17:01.607Z,4.50
2017-09-25T15:19:28.263Z,3.40
2017-09-25T15:21:56.238Z,3.97
2017-09-25T15:24:23.703Z,3.60
2017-09-25T15:26:51.037Z,3.60
2017-09-25T15:29:17.721Z,2.83
2017-09-25T15:31:45.024Z,3.60
2017-09-25T15:34:12.442Z,3.53
2017-09-25T15:36:39.284Z,3.10
2017-09-25T15:39:09.936Z,3.00
2017-09-25T15:41:37.206Z,3.40
2017-09-25T15:44:04.811Z,3.53
2017-09-25T15:46:31.960Z,2.80
2017-09-25T15:49:00.492Z,3.03
2017-09-25T15:51:29.240Z,2.70
2017-09-25T15:53:58.067Z,2.43
2017-09-25T15:56:25.915Z,2.80
2017-09-25T15:58:53.828Z,2.70
2017-09-25T16:01:21.243Z,2.80
2017-09-25T16:03:48.903Z,2.40
2017-09-25T16:06:17.056Z,2.90
2017-09-25T16:08:46.949Z,2.63
2017-09-25T16:11:15.600Z,2.60
2017-09-25T16:13:42.287Z,2.40
2017-09-25T16:16:12.817Z,2.70
2017-09-25T16:18:40.967Z,2.80
2017-09-25T16:21:09.118Z,2.50
2017-09-25T16:23:37.984Z,2.70
2017-09-25T16:26:07.534Z,2.63
2017-09-25T16:28:37.722Z,2.40
2017-09-25T16:31:04.441Z,3.03
2017-09-25T16:33:31.203Z,2.97
2017-09-25T16:35:59.968Z,2.40
2017-09-25T16:38:28.314Z,2.73
2017-09-25T16:40:56.260Z,2.50
2017-09-25T16:43:22.828Z,3.37
2017-09-25T16:45:50.459Z,3.20
2017-09-25T16:48:18.001Z,2.80
2017-09-25T16:50:45.471Z,3.93
2017-09-25T16:53:12.874Z,4.10
2017-09-25T16:55:40.655Z,2.90
2017-09-25T16:58:07.261Z,3.50
2017-09-25T17:00:34.377Z,3.07
2017-09-25T17:03:01.039Z,3.70
2017-09-25T17:05:29.330Z,3.03
2017-09-25T17:07:56.008Z,3.10
2017-09-25T17:10:24.010Z,4.10
2017-09-25T17:12:50.626Z,3.97
2017-09-25T17:15:17.201Z,3.50
2017-09-25T17:17:43.746Z,5.00
2017-09-25T17:20:10.385Z,4.00
2017-09-25T17:22:37.830Z,5.30
2017-09-25T17:25:04.453Z,6.40
2017-09-25T17:27:31.038Z,6.10
2017-09-25T17:29:57.642Z,6.27
2017-09-25T17:32:26.345Z,5.40
2017-09-25T17:34:52.870Z,6.40
2017-09-25T17:37:21.648Z,6.40
2017-09-25T17:39:48.595Z,7.57
2017-09-25T17:42:16.575Z,7.20
2017-09-25T17:44:44.737Z,6.97
2017-09-25T17:47:12.854Z,8.60
2017-09-25T17:49:39.626Z,8.73
2017-09-25T17:52:07.053Z,8.70
2017-09-25T17:54:33.734Z,9.27
2017-09-25T17:57:00.246Z,8.93
2017-09-25T17:59:26.723Z,8.60
2017-09-25T18:01:53.980Z,9.40
2017-09-25T18:04:21.358Z,8.63
2017-09-25T18:06:47.878Z,10.40
2017-09-25T18:09:15.097Z,10.20
2017-09-25T18:11:41.743Z,9.77
2017-09-25T18:14:08.183Z,12.07
2017-09-25T18:16:34.667Z,11.83
2017-09-25T18:19:01.134Z,13.80
2017-09-25T18:21:27.652Z,12.77
2017-09-25T18:23:54.107Z,13.70
2017-09-25T18:26:20.619Z,12.97
2017-09-25T18:28:47.304Z,12.13
2017-09-25T18:31:14.597Z,13.80
2017-09-25T18:33:41.056Z,12.17
2017-09-25T18:36:07.578Z,13.53
2017-09-25T18:38:34.028Z,14.90
2017-09-25T18:41:00.778Z,12.80
2017-09-25T18:43:27.267Z,14.53
2017-09-25T18:45:54.646Z,14.60
2017-09-25T18:48:21.305Z,13.23
2017-09-25T18:50:47.809Z,15.80
2017-09-25T18:53:14.328Z,16.77
2017-09-25T18:55:40.880Z,15.43
2017-09-25T18:58:07.375Z,16.00
2017-09-25T19:00:33.914Z,14.47
2017-09-25T19:03:01.191Z,15.20
2017-09-25T19:05:27.806Z,15.40
2017-09-25T19:07:54.319Z,15.30
2017-09-25T19:10:21.595Z,14.50
2017-09-25T19:12:48.794Z,15.07
2017-09-25T19:15:15.996Z,14.23
2017-09-25T19:17:42.529Z,17.03
2017-09-25T19:20:09.049Z,15.63
2017-09-25T19:22:35.683Z,14.50
2017-09-25T19:25:02.221Z,17.63
2017-09-25T19:27:28.753Z,16.23
2017-09-25T19:29:55.347Z,16.30
2017-09-25T19:32:22.701Z,17.20
2017-09-25T19:34:50.061Z,16.80
2017-09-25T19:37:16.538Z,20.00
2017-09-25T19:39:43.052Z,19.70
2017-09-25T19:42:09.503Z,22.20
2017-09-25T19:44:36.045Z,24.87
2017-09-25T19:47:02.576Z,22.17
2017-09-25T19:49:33.095Z,23.90
2017-09-25T19:52:00.327Z,23.30
2017-09-25T19:54:30.139Z,22.50
2017-09-25T19:56:59.868Z,23.50
2017-09-25T19:59:26.495Z,27.23
2017-09-25T20:01:53.033Z,22.30
2017-09-25T20:04:19.526Z,24.33
2017-09-25T20:06:46.041Z,24.73
2017-09-25T20:09:12.534Z,25.07
2017-09-25T20:14:54.311Z,25.27
2017-09-25T20:17:20.796Z,21.67
2017-09-25T20:19:47.204Z,24.53
2017-09-25T20:22:13.599Z,25.93
2017-09-25T20:24:39.980Z,22.27
2017-09-25T20:27:07.099Z,22.77
2017-09-25T20:29:34.256Z,25.43
2017-09-25T20:32:00.671Z,28.67
2017-09-25T20:34:27.058Z,27.10
2017-09-25T20:36:53.500Z,30.23
2017-09-25T20:39:20.651Z,28.37
2017-09-25T20:41:49.970Z,28.77
2017-09-25T20:44:17.131Z,30.37
2017-09-25T20:46:43.507Z,29.33
2017-09-25T20:49:09.915Z,29.30
2017-09-25T20:51:36.331Z,23.93
2017-09-25T20:54:02.771Z,27.30
2017-09-25T20:56:29.171Z,26.67
2017-09-25T20:58:56.326Z,26.20
2017-09-25T21:01:22.837Z,23.53
2017-09-25T21:03:49.239Z,19.50
2017-09-25T21:06:15.677Z,26.20
2017-09-25T21:08:42.807Z,24.40
2017-09-25T21:11:09.190Z,26.90
2017-09-25T21:13:35.714Z,26.10
2017-09-25T21:16:02.895Z,26.47
2017-09-25T21:18:29.282Z,29.87
2017-09-25T21:20:55.683Z,29.97
2017-09-25T21:23:22.079Z,24.97
2017-09-25T21:25:52.395Z,23.90
2017-09-25T21:28:18.831Z,27.73
2017-09-25T21:30:45.253Z,28.93
2017-09-25T21:33:11.627Z,28.40
2017-09-25T21:35:39.543Z,30.97
2017-09-25T21:38:05.983Z,31.27
2017-09-25T21:40:32.412Z,26.93
2017-09-25T21:42:58.791Z,26.33
2017-09-25T21:45:25.943Z,26.47
2017-09-25T21:47:52.312Z,26.37
2017-09-25T21:50:18.715Z,27.97
2017-09-25T21:52:45.087Z,26.47
2017-09-25T21:55:11.550Z,23.53
2017-09-25T21:57:37.955Z,27.00
2017-09-25T22:00:05.106Z,25.57
2017-09-25T22:02:31.520Z,29.20
2017-09-25T22:04:57.904Z,27.93
2017-09-25T22:07:24.334Z,30.07
2017-09-25T22:09:50.714Z,27.60
2017-09-25T22:12:17.869Z,27.10
2017-09-25T22:14:44.999Z,30.40
2017-09-25T22:17:11.418Z,27.43
2017-09-25T22:19:39.342Z,26.43
2017-09-25T22:22:05.820Z,31.80
2017-09-25T22:24:32.221Z,34.10
2017-09-25T22:26:58.654Z,36.23
2017-09-25T22:29:25.035Z,34.20
2017-09-25T22:31:51.450Z,35.40
2017-09-25T22:34:17.862Z,31.63
2017-09-25T22:36:44.255Z,28.70
2017-09-25T22:39:11.411Z,31.17
2017-09-25T22:41:37.819Z,30.23
2017-09-25T22:44:08.183Z,29.30
2017-09-25T22:46:34.567Z,27.20
2017-09-25T22:49:01.190Z,29.70
2017-09-25T22:51:28.367Z,26.80
2017-09-25T22:53:54.751Z,27.07
2017-09-25T22:56:21.167Z,26.27
2017-09-25T22:58:48.319Z,28.50
2017-09-25T23:01:14.708Z,26.10
2017-09-25T23:03:41.991Z,26.50
2017-09-25T23:06:08.458Z,26.03
2017-09-25T23:08:34.923Z,24.80
2017-09-25T23:11:05.413Z,29.70
2017-09-25T23:13:31.836Z,27.90
2017-09-25T23:15:59.051Z,26.23
2017-09-25T23:18:26.211Z,27.87
2017-09-25T23:20:52.667Z,28.40
2017-09-25T23:23:19.030Z,28.97
2017-09-25T23:25:45.426Z,30.73
2017-09-25T23:28:12.590Z,29.00
2017-09-25T23:30:39.779Z,29.80
2017-09-25T23:33:06.955Z,26.60
2017-09-25T23:35:33.366Z,22.57
2017-09-25T23:38:00.511Z,24.67
2017-09-25T23:40:28.399Z,29.43
2017-09-25T23:42:54.777Z,28.70
2017-09-25T23:45:21.163Z,27.00
2017-09-25T23:47:47.534Z,32.50
2017-09-25T23:50:14.690Z,31.20
2017-09-25T23:52:41.158Z,29.50
2017-09-25T23:55:07.554Z,30.97
2017-09-25T23:57:40.914Z,30.87
